sensor_id;sensor_type;location;lat;lon;timestamp;temperature;humidity
66608;DHT22;53462;39.616;8.824;2023-09-19T00:01:43;23.70;78.50
66608;DHT22;53462;39.616;8.824;2023-09-19T00:04:12;23.60;79.10
66608;DHT22;53462;39.616;8.824;2023-09-19T00:06:57;23.50;79.60
66608;DHT22;53462;39.616;8.824;2023-09-19T00:09:23;23.40;80.30
66608;DHT22;53462;39.616;8.824;2023-09-19T00:11:52;23.40;80.90
66608;DHT22;53462;39.616;8.824;2023-09-19T00:14:18;23.40;81.30
66608;DHT22;53462;39.616;8.824;2023-09-19T00:16:44;23.40;81.60
66608;DHT22;53462;39.616;8.824;2023-09-19T00:19:12;23.30;82.30
66608;DHT22;53462;39.616;8.824;2023-09-19T00:21:38;23.30;82.80
66608;DHT22;53462;39.616;8.824;2023-09-19T00:24:06;23.30;83.20
66608;DHT22;53462;39.616;8.824;2023-09-19T00:26:33;23.20;83.40
66608;DHT22;53462;39.616;8.824;2023-09-19T00:29:00;23.00;83.70
66608;DHT22;53462;39.616;8.824;2023-09-19T00:31:34;23.00;84.30
66608;DHT22;53462;39.616;8.824;2023-09-19T00:34:00;22.90;84.80
66608;DHT22;53462;39.616;8.824;2023-09-19T00:36:32;23.00;85.00
66608;DHT22;53462;39.616;8.824;2023-09-19T00:38:59;23.10;84.30
66608;DHT22;53462;39.616;8.824;2023-09-19T00:41:26;23.10;84.10
66608;DHT22;53462;39.616;8.824;2023-09-19T00:43:52;23.10;83.90
66608;DHT22;53462;39.616;8.824;2023-09-19T00:46:19;23.00;83.70
66608;DHT22;53462;39.616;8.824;2023-09-19T00:48:46;23.00;83.80
66608;DHT22;53462;39.616;8.824;2023-09-19T00:51:13;23.20;84.60
66608;DHT22;53462;39.616;8.824;2023-09-19T00:53:39;23.50;84.50
66608;DHT22;53462;39.616;8.824;2023-09-19T00:56:11;23.60;83.70
66608;DHT22;53462;39.616;8.824;2023-09-19T00:58:38;23.60;83.80
66608;DHT22;53462;39.616;8.824;2023-09-19T01:01:04;23.40;83.80
66608;DHT22;53462;39.616;8.824;2023-09-19T01:03:36;23.40;83.70
66608;DHT22;53462;39.616;8.824;2023-09-19T01:06:02;23.40;83.10
66608;DHT22;53462;39.616;8.824;2023-09-19T01:08:28;23.30;83.30
66608;DHT22;53462;39.616;8.824;2023-09-19T01:11:20;23.10;83.10
66608;DHT22;53462;39.616;8.824;2023-09-19T01:14:40;23.00;82.80
66608;DHT22;53462;39.616;8.824;2023-09-19T01:22:48;22.70;86.00
66608;DHT22;53462;39.616;8.824;2023-09-19T01:25:42;22.70;87.60
66608;DHT22;53462;39.616;8.824;2023-09-19T01:28:31;22.60;88.70
66608;DHT22;53462;39.616;8.824;2023-09-19T01:31:03;22.70;89.60
66608;DHT22;53462;39.616;8.824;2023-09-19T01:36:28;22.60;89.20
66608;DHT22;53462;39.616;8.824;2023-09-19T01:38:55;22.60;88.30
66608;DHT22;53462;39.616;8.824;2023-09-19T01:41:33;22.60;87.20
66608;DHT22;53462;39.616;8.824;2023-09-19T01:44:03;22.70;86.50
66608;DHT22;53462;39.616;8.824;2023-09-19T01:46:39;23.00;86.30
66608;DHT22;53462;39.616;8.824;2023-09-19T01:52:12;23.60;84.40
66608;DHT22;53462;39.616;8.824;2023-09-19T01:54:50;23.60;83.70
66608;DHT22;53462;39.616;8.824;2023-09-19T01:57:28;23.70;83.10
66608;DHT22;53462;39.616;8.824;2023-09-19T02:00:10;23.80;82.20
66608;DHT22;53462;39.616;8.824;2023-09-19T02:02:46;23.80;81.40
66608;DHT22;53462;39.616;8.824;2023-09-19T02:05:13;23.70;81.30
66608;DHT22;53462;39.616;8.824;2023-09-19T02:07:48;23.40;82.10
66608;DHT22;53462;39.616;8.824;2023-09-19T02:10:16;23.40;82.60
66608;DHT22;53462;39.616;8.824;2023-09-19T02:12:42;23.30;82.80
66608;DHT22;53462;39.616;8.824;2023-09-19T02:15:08;23.10;83.30
66608;DHT22;53462;39.616;8.824;2023-09-19T02:17:34;22.90;83.60
66608;DHT22;53462;39.616;8.824;2023-09-19T02:20:00;22.80;84.40
66608;DHT22;53462;39.616;8.824;2023-09-19T02:22:29;22.80;85.30
66608;DHT22;53462;39.616;8.824;2023-09-19T02:24:55;22.80;85.50
66608;DHT22;53462;39.616;8.824;2023-09-19T02:27:24;22.70;85.90
66608;DHT22;53462;39.616;8.824;2023-09-19T02:29:51;22.60;86.80
66608;DHT22;53462;39.616;8.824;2023-09-19T02:32:17;22.50;87.30
66608;DHT22;53462;39.616;8.824;2023-09-19T02:34:43;22.50;87.60
66608;DHT22;53462;39.616;8.824;2023-09-19T02:37:10;22.40;87.90
66608;DHT22;53462;39.616;8.824;2023-09-19T02:39:36;22.40;88.50
66608;DHT22;53462;39.616;8.824;2023-09-19T02:42:03;22.30;88.90
66608;DHT22;53462;39.616;8.824;2023-09-19T02:44:30;22.40;89.30
66608;DHT22;53462;39.616;8.824;2023-09-19T02:46:55;22.40;88.90
66608;DHT22;53462;39.616;8.824;2023-09-19T02:49:23;22.40;88.30
66608;DHT22;53462;39.616;8.824;2023-09-19T02:51:49;22.40;87.80
66608;DHT22;53462;39.616;8.824;2023-09-19T02:54:15;22.30;87.50
66608;DHT22;53462;39.616;8.824;2023-09-19T02:56:44;22.50;87.10
66608;DHT22;53462;39.616;8.824;2023-09-19T02:59:10;22.70;86.30
66608;DHT22;53462;39.616;8.824;2023-09-19T03:01:36;22.80;85.10
66608;DHT22;53462;39.616;8.824;2023-09-19T03:04:05;22.70;84.90
66608;DHT22;53462;39.616;8.824;2023-09-19T03:06:37;22.60;85.00
66608;DHT22;53462;39.616;8.824;2023-09-19T03:09:04;22.60;85.20
66608;DHT22;53462;39.616;8.824;2023-09-19T03:11:38;22.60;85.10
66608;DHT22;53462;39.616;8.824;2023-09-19T03:14:06;22.70;84.20
66608;DHT22;53462;39.616;8.824;2023-09-19T03:16:32;22.40;82.70
66608;DHT22;53462;39.616;8.824;2023-09-19T03:18:59;22.30;83.60
66608;DHT22;53462;39.616;8.824;2023-09-19T03:21:26;22.10;84.50
66608;DHT22;53462;39.616;8.824;2023-09-19T03:23:56;22.10;85.70
66608;DHT22;53462;39.616;8.824;2023-09-19T03:26:22;22.00;86.50
66608;DHT22;53462;39.616;8.824;2023-09-19T03:28:48;22.10;87.30
66608;DHT22;53462;39.616;8.824;2023-09-19T03:31:14;22.20;87.40
66608;DHT22;53462;39.616;8.824;2023-09-19T03:33:40;22.30;87.40
66608;DHT22;53462;39.616;8.824;2023-09-19T03:36:06;22.40;87.50
66608;DHT22;53462;39.616;8.824;2023-09-19T03:38:33;22.50;87.20
66608;DHT22;53462;39.616;8.824;2023-09-19T03:41:02;22.40;87.20
66608;DHT22;53462;39.616;8.824;2023-09-19T03:43:28;22.40;87.70
66608;DHT22;53462;39.616;8.824;2023-09-19T03:45:54;22.40;87.40
66608;DHT22;53462;39.616;8.824;2023-09-19T03:48:21;22.50;87.60
66608;DHT22;53462;39.616;8.824;2023-09-19T03:50:49;22.60;87.30
66608;DHT22;53462;39.616;8.824;2023-09-19T03:53:15;22.70;87.10
66608;DHT22;53462;39.616;8.824;2023-09-19T03:55:41;22.70;86.50
66608;DHT22;53462;39.616;8.824;2023-09-19T03:58:07;22.80;85.80
66608;DHT22;53462;39.616;8.824;2023-09-19T04:00:33;22.80;85.60
66608;DHT22;53462;39.616;8.824;2023-09-19T04:03:01;22.80;85.40
66608;DHT22;53462;39.616;8.824;2023-09-19T04:05:31;22.70;85.70
66608;DHT22;53462;39.616;8.824;2023-09-19T04:07:58;22.60;86.10
66608;DHT22;53462;39.616;8.824;2023-09-19T04:10:24;22.60;86.30
66608;DHT22;53462;39.616;8.824;2023-09-19T04:12:54;22.50;86.70
66608;DHT22;53462;39.616;8.824;2023-09-19T04:15:22;22.50;86.90
66608;DHT22;53462;39.616;8.824;2023-09-19T04:17:50;22.40;87.00
66608;DHT22;53462;39.616;8.824;2023-09-19T04:20:17;22.40;86.50
66608;DHT22;53462;39.616;8.824;2023-09-19T04:22:43;22.40;86.60
66608;DHT22;53462;39.616;8.824;2023-09-19T04:25:09;22.50;86.10
66608;DHT22;53462;39.616;8.824;2023-09-19T04:27:35;22.40;85.70
66608;DHT22;53462;39.616;8.824;2023-09-19T04:30:01;22.30;86.20
66608;DHT22;53462;39.616;8.824;2023-09-19T04:32:29;22.40;85.60
66608;DHT22;53462;39.616;8.824;2023-09-19T04:34:57;22.50;85.20
66608;DHT22;53462;39.616;8.824;2023-09-19T04:37:26;22.60;84.20
66608;DHT22;53462;39.616;8.824;2023-09-19T04:39:52;22.60;83.80
66608;DHT22;53462;39.616;8.824;2023-09-19T04:42:18;22.60;83.30
66608;DHT22;53462;39.616;8.824;2023-09-19T04:44:44;22.60;83.20
66608;DHT22;53462;39.616;8.824;2023-09-19T04:47:10;22.50;82.90
66608;DHT22;53462;39.616;8.824;2023-09-19T04:49:37;22.40;82.70
66608;DHT22;53462;39.616;8.824;2023-09-19T04:52:05;22.30;83.10
66608;DHT22;53462;39.616;8.824;2023-09-19T04:54:31;22.30;82.90
66608;DHT22;53462;39.616;8.824;2023-09-19T04:56:57;22.10;83.00
66608;DHT22;53462;39.616;8.824;2023-09-19T04:59:23;22.00;83.70
66608;DHT22;53462;39.616;8.824;2023-09-19T05:01:48;22.20;83.30
66608;DHT22;53462;39.616;8.824;2023-09-19T05:04:14;22.40;81.90
66608;DHT22;53462;39.616;8.824;2023-09-19T05:06:40;22.40;81.20
66608;DHT22;53462;39.616;8.824;2023-09-19T05:09:06;22.50;80.80
66608;DHT22;53462;39.616;8.824;2023-09-19T05:11:32;22.50;79.90
66608;DHT22;53462;39.616;8.824;2023-09-19T05:13:58;22.40;80.60
66608;DHT22;53462;39.616;8.824;2023-09-19T05:16:29;22.40;81.00
66608;DHT22;53462;39.616;8.824;2023-09-19T05:18:59;22.30;80.70
66608;DHT22;53462;39.616;8.824;2023-09-19T05:21:30;22.30;79.70
66608;DHT22;53462;39.616;8.824;2023-09-19T05:23:56;22.30;78.90
66608;DHT22;53462;39.616;8.824;2023-09-19T05:26:22;22.30;78.90
66608;DHT22;53462;39.616;8.824;2023-09-19T05:28:48;22.20;79.60
66608;DHT22;53462;39.616;8.824;2023-09-19T05:31:14;22.10;80.70
66608;DHT22;53462;39.616;8.824;2023-09-19T05:33:41;21.90;82.10
66608;DHT22;53462;39.616;8.824;2023-09-19T05:36:07;21.60;83.50
66608;DHT22;53462;39.616;8.824;2023-09-19T05:38:37;21.50;83.90
66608;DHT22;53462;39.616;8.824;2023-09-19T05:41:06;21.50;83.50
66608;DHT22;53462;39.616;8.824;2023-09-19T05:43:32;21.60;83.00
66608;DHT22;53462;39.616;8.824;2023-09-19T05:46:00;21.70;82.50
66608;DHT22;53462;39.616;8.824;2023-09-19T05:48:25;21.80;81.50
66608;DHT22;53462;39.616;8.824;2023-09-19T05:50:51;21.90;80.90
66608;DHT22;53462;39.616;8.824;2023-09-19T05:53:17;21.80;80.70
66608;DHT22;53462;39.616;8.824;2023-09-19T05:55:44;22.00;80.80
66608;DHT22;53462;39.616;8.824;2023-09-19T05:58:10;22.00;79.70
66608;DHT22;53462;39.616;8.824;2023-09-19T06:00:36;22.10;79.30
66608;DHT22;53462;39.616;8.824;2023-09-19T06:03:02;22.50;78.30
66608;DHT22;53462;39.616;8.824;2023-09-19T06:05:28;22.60;77.60
66608;DHT22;53462;39.616;8.824;2023-09-19T06:07:56;22.70;77.70
66608;DHT22;53462;39.616;8.824;2023-09-19T06:10:26;22.70;77.90
66608;DHT22;53462;39.616;8.824;2023-09-19T06:12:54;22.70;77.80
66608;DHT22;53462;39.616;8.824;2023-09-19T06:15:21;22.80;78.00
66608;DHT22;53462;39.616;8.824;2023-09-19T06:17:55;22.90;78.10
66608;DHT22;53462;39.616;8.824;2023-09-19T06:20:23;23.10;77.30
66608;DHT22;53462;39.616;8.824;2023-09-19T06:22:49;23.30;75.80
66608;DHT22;53462;39.616;8.824;2023-09-19T06:25:16;23.30;75.40
66608;DHT22;53462;39.616;8.824;2023-09-19T06:27:49;23.40;75.10
66608;DHT22;53462;39.616;8.824;2023-09-19T06:30:18;23.50;75.40
66608;DHT22;53462;39.616;8.824;2023-09-19T06:32:44;23.60;74.70
66608;DHT22;53462;39.616;8.824;2023-09-19T06:35:11;23.70;73.40
66608;DHT22;53462;39.616;8.824;2023-09-19T06:37:38;24.00;72.30
66608;DHT22;53462;39.616;8.824;2023-09-19T06:40:11;24.20;70.80
66608;DHT22;53462;39.616;8.824;2023-09-19T06:42:45;24.40;69.30
66608;DHT22;53462;39.616;8.824;2023-09-19T06:45:12;24.60;68.00
66608;DHT22;53462;39.616;8.824;2023-09-19T06:47:39;24.70;67.30
66608;DHT22;53462;39.616;8.824;2023-09-19T06:50:06;24.80;66.40
66608;DHT22;53462;39.616;8.824;2023-09-19T06:52:35;24.90;65.40
66608;DHT22;53462;39.616;8.824;2023-09-19T06:55:01;24.90;64.70
66608;DHT22;53462;39.616;8.824;2023-09-19T06:57:29;25.00;63.90
66608;DHT22;53462;39.616;8.824;2023-09-19T06:59:56;25.30;64.00
66608;DHT22;53462;39.616;8.824;2023-09-19T07:02:22;25.50;62.50
66608;DHT22;53462;39.616;8.824;2023-09-19T07:04:48;25.60;63.70
66608;DHT22;53462;39.616;8.824;2023-09-19T07:07:15;25.80;64.00
66608;DHT22;53462;39.616;8.824;2023-09-19T07:09:42;26.00;63.70
66608;DHT22;53462;39.616;8.824;2023-09-19T07:12:08;26.10;63.00
66608;DHT22;53462;39.616;8.824;2023-09-19T07:14:34;26.00;63.20
66608;DHT22;53462;39.616;8.824;2023-09-19T07:17:00;26.00;63.30
66608;DHT22;53462;39.616;8.824;2023-09-19T07:19:26;25.90;63.40
66608;DHT22;53462;39.616;8.824;2023-09-19T07:21:57;26.20;62.70
66608;DHT22;53462;39.616;8.824;2023-09-19T07:24:25;26.30;61.30
66608;DHT22;53462;39.616;8.824;2023-09-19T07:26:52;26.60;61.00
66608;DHT22;53462;39.616;8.824;2023-09-19T07:29:18;26.60;60.80
66608;DHT22;53462;39.616;8.824;2023-09-19T07:31:44;26.80;60.30
66608;DHT22;53462;39.616;8.824;2023-09-19T07:34:12;26.90;60.30
66608;DHT22;53462;39.616;8.824;2023-09-19T07:36:39;27.10;60.00
66608;DHT22;53462;39.616;8.824;2023-09-19T07:39:07;27.30;59.30
66608;DHT22;53462;39.616;8.824;2023-09-19T07:41:34;27.30;58.50
66608;DHT22;53462;39.616;8.824;2023-09-19T07:44:00;27.30;58.70
66608;DHT22;53462;39.616;8.824;2023-09-19T07:46:26;27.40;58.50
66608;DHT22;53462;39.616;8.824;2023-09-19T07:48:52;27.50;57.60
66608;DHT22;53462;39.616;8.824;2023-09-19T07:51:18;27.60;57.50
66608;DHT22;53462;39.616;8.824;2023-09-19T07:53:44;27.90;56.70
66608;DHT22;53462;39.616;8.824;2023-09-19T07:56:10;28.00;55.80
66608;DHT22;53462;39.616;8.824;2023-09-19T07:58:38;28.00;56.10
66608;DHT22;53462;39.616;8.824;2023-09-19T08:01:09;28.10;56.40
66608;DHT22;53462;39.616;8.824;2023-09-19T08:03:38;28.40;55.60
66608;DHT22;53462;39.616;8.824;2023-09-19T08:06:09;28.50;54.50
66608;DHT22;53462;39.616;8.824;2023-09-19T08:08:35;28.60;54.40
66608;DHT22;53462;39.616;8.824;2023-09-19T08:11:04;28.70;54.00
66608;DHT22;53462;39.616;8.824;2023-09-19T08:13:47;28.80;53.50
66608;DHT22;53462;39.616;8.824;2023-09-19T08:16:15;29.00;52.80
66608;DHT22;53462;39.616;8.824;2023-09-19T08:18:41;29.10;51.70
66608;DHT22;53462;39.616;8.824;2023-09-19T08:21:07;29.30;51.40
66608;DHT22;53462;39.616;8.824;2023-09-19T08:23:37;29.50;51.30
66608;DHT22;53462;39.616;8.824;2023-09-19T08:26:04;29.60;51.40
66608;DHT22;53462;39.616;8.824;2023-09-19T08:28:34;29.70;50.40
66608;DHT22;53462;39.616;8.824;2023-09-19T08:31:04;29.90;50.60
66608;DHT22;53462;39.616;8.824;2023-09-19T08:33:33;30.10;49.40
66608;DHT22;53462;39.616;8.824;2023-09-19T08:36:00;30.10;49.60
66608;DHT22;53462;39.616;8.824;2023-09-19T08:38:26;29.80;50.50
66608;DHT22;53462;39.616;8.824;2023-09-19T08:40:59;29.20;51.80
66608;DHT22;53462;39.616;8.824;2023-09-19T08:43:29;29.20;52.80
66608;DHT22;53462;39.616;8.824;2023-09-19T08:46:11;29.40;52.60
66608;DHT22;53462;39.616;8.824;2023-09-19T08:48:59;29.50;52.20
66608;DHT22;53462;39.616;8.824;2023-09-19T08:51:33;29.70;51.10
66608;DHT22;53462;39.616;8.824;2023-09-19T08:54:07;29.60;52.10
66608;DHT22;53462;39.616;8.824;2023-09-19T08:56:33;29.60;52.30
66608;DHT22;53462;39.616;8.824;2023-09-19T08:59:06;29.60;53.00
66608;DHT22;53462;39.616;8.824;2023-09-19T09:01:35;29.30;53.40
66608;DHT22;53462;39.616;8.824;2023-09-19T09:04:03;29.30;52.60
66608;DHT22;53462;39.616;8.824;2023-09-19T09:06:30;29.20;53.60
66608;DHT22;53462;39.616;8.824;2023-09-19T09:08:58;29.10;52.80
66608;DHT22;53462;39.616;8.824;2023-09-19T09:11:24;29.00;52.90
66608;DHT22;53462;39.616;8.824;2023-09-19T09:13:50;29.10;53.80
66608;DHT22;53462;39.616;8.824;2023-09-19T09:16:16;29.20;52.90
66608;DHT22;53462;39.616;8.824;2023-09-19T09:18:45;29.30;53.20
66608;DHT22;53462;39.616;8.824;2023-09-19T09:21:12;29.30;52.70
66608;DHT22;53462;39.616;8.824;2023-09-19T09:23:41;29.20;52.40
66608;DHT22;53462;39.616;8.824;2023-09-19T09:26:07;29.20;52.60
66608;DHT22;53462;39.616;8.824;2023-09-19T09:28:35;29.40;53.10
66608;DHT22;53462;39.616;8.824;2023-09-19T09:31:03;29.40;52.60
66608;DHT22;53462;39.616;8.824;2023-09-19T09:33:34;29.60;51.50
66608;DHT22;53462;39.616;8.824;2023-09-19T09:36:01;29.60;50.80
66608;DHT22;53462;39.616;8.824;2023-09-19T09:38:46;29.40;50.70
66608;DHT22;53462;39.616;8.824;2023-09-19T09:41:15;29.30;50.60
66608;DHT22;53462;39.616;8.824;2023-09-19T09:43:53;29.50;52.10
66608;DHT22;53462;39.616;8.824;2023-09-19T09:46:21;29.40;51.60
66608;DHT22;53462;39.616;8.824;2023-09-19T09:48:56;29.40;50.50
66608;DHT22;53462;39.616;8.824;2023-09-19T09:51:50;29.40;52.00
66608;DHT22;53462;39.616;8.824;2023-09-19T09:55:01;29.70;51.50
66608;DHT22;53462;39.616;8.824;2023-09-19T09:57:32;30.00;50.20
66608;DHT22;53462;39.616;8.824;2023-09-19T10:00:00;30.30;50.10
66608;DHT22;53462;39.616;8.824;2023-09-19T10:02:42;30.20;48.90
66608;DHT22;53462;39.616;8.824;2023-09-19T10:05:18;29.90;49.70
66608;DHT22;53462;39.616;8.824;2023-09-19T10:08:10;29.90;49.10
66608;DHT22;53462;39.616;8.824;2023-09-19T10:10:41;29.80;50.10
66608;DHT22;53462;39.616;8.824;2023-09-19T10:13:08;29.80;50.70
66608;DHT22;53462;39.616;8.824;2023-09-19T10:15:39;30.20;49.00
66608;DHT22;53462;39.616;8.824;2023-09-19T10:18:11;30.50;48.00
66608;DHT22;53462;39.616;8.824;2023-09-19T10:20:44;30.50;48.40
66608;DHT22;53462;39.616;8.824;2023-09-19T10:23:12;30.60;48.60
66608;DHT22;53462;39.616;8.824;2023-09-19T10:25:40;30.50;47.60
66608;DHT22;53462;39.616;8.824;2023-09-19T10:28:08;30.60;48.10
66608;DHT22;53462;39.616;8.824;2023-09-19T10:30:42;30.70;48.20
66608;DHT22;53462;39.616;8.824;2023-09-19T10:33:23;30.60;48.10
66608;DHT22;53462;39.616;8.824;2023-09-19T10:35:53;30.80;47.50
66608;DHT22;53462;39.616;8.824;2023-09-19T10:38:27;31.00;45.80
66608;DHT22;53462;39.616;8.824;2023-09-19T10:40:55;31.00;45.20
66608;DHT22;53462;39.616;8.824;2023-09-19T10:43:32;30.90;46.00
66608;DHT22;53462;39.616;8.824;2023-09-19T10:46:03;31.00;46.90
66608;DHT22;53462;39.616;8.824;2023-09-19T10:48:32;30.90;45.90
66608;DHT22;53462;39.616;8.824;2023-09-19T10:51:10;31.00;47.60
66608;DHT22;53462;39.616;8.824;2023-09-19T10:54:05;31.30;47.30
66608;DHT22;53462;39.616;8.824;2023-09-19T10:56:37;31.40;46.80
66608;DHT22;53462;39.616;8.824;2023-09-19T10:59:10;31.70;45.70
66608;DHT22;53462;39.616;8.824;2023-09-19T11:01:52;32.30;45.30
66608;DHT22;53462;39.616;8.824;2023-09-19T11:04:35;32.70;43.10
66608;DHT22;53462;39.616;8.824;2023-09-19T11:07:12;33.30;42.80
66608;DHT22;53462;39.616;8.824;2023-09-19T11:09:44;33.10;42.60
66608;DHT22;53462;39.616;8.824;2023-09-19T11:27:12;33.40;39.10
66608;DHT22;53462;39.616;8.824;2023-09-19T11:29:44;33.40;39.00
66608;DHT22;53462;39.616;8.824;2023-09-19T11:32:10;33.40;39.10
66608;DHT22;53462;39.616;8.824;2023-09-19T11:38:04;34.20;34.80
66608;DHT22;53462;39.616;8.824;2023-09-19T11:40:11;34.50;37.50
66608;DHT22;53462;39.616;8.824;2023-09-19T11:42:48;34.70;36.60
66608;DHT22;53462;39.616;8.824;2023-09-19T11:48:15;34.10;38.20
66608;DHT22;53462;39.616;8.824;2023-09-19T11:50:43;33.90;36.90
66608;DHT22;53462;39.616;8.824;2023-09-19T11:53:11;34.20;35.40
66608;DHT22;53462;39.616;8.824;2023-09-19T11:55:39;34.40;36.40
66608;DHT22;53462;39.616;8.824;2023-09-19T11:58:09;35.00;37.00
66608;DHT22;53462;39.616;8.824;2023-09-19T12:00:36;35.00;35.40
66608;DHT22;53462;39.616;8.824;2023-09-19T12:03:09;35.20;35.20
66608;DHT22;53462;39.616;8.824;2023-09-19T12:05:37;34.70;36.40
66608;DHT22;53462;39.616;8.824;2023-09-19T12:08:07;34.10;35.60
66608;DHT22;53462;39.616;8.824;2023-09-19T12:10:48;34.00;35.20
66608;DHT22;53462;39.616;8.824;2023-09-19T12:13:18;34.20;34.50
66608;DHT22;53462;39.616;8.824;2023-09-19T12:15:45;34.00;34.80
66608;DHT22;53462;39.616;8.824;2023-09-19T12:18:29;34.10;35.80
66608;DHT22;53462;39.616;8.824;2023-09-19T12:20:56;34.30;34.10
66608;DHT22;53462;39.616;8.824;2023-09-19T12:23:23;34.30;34.10
66608;DHT22;53462;39.616;8.824;2023-09-19T12:25:52;34.20;34.00
66608;DHT22;53462;39.616;8.824;2023-09-19T12:28:20;34.30;33.40
66608;DHT22;53462;39.616;8.824;2023-09-19T12:30:48;34.70;34.10
66608;DHT22;53462;39.616;8.824;2023-09-19T12:33:21;34.70;35.90
66608;DHT22;53462;39.616;8.824;2023-09-19T12:35:51;35.00;33.50
66608;DHT22;53462;39.616;8.824;2023-09-19T12:38:28;34.90;35.10
66608;DHT22;53462;39.616;8.824;2023-09-19T12:40:57;34.90;34.90
66608;DHT22;53462;39.616;8.824;2023-09-19T12:43:31;34.80;35.20
66608;DHT22;53462;39.616;8.824;2023-09-19T12:46:02;34.50;36.20
66608;DHT22;53462;39.616;8.824;2023-09-19T12:48:28;34.40;36.20
66608;DHT22;53462;39.616;8.824;2023-09-19T12:51:11;34.50;35.50
66608;DHT22;53462;39.616;8.824;2023-09-19T12:53:42;34.70;36.00
66608;DHT22;53462;39.616;8.824;2023-09-19T12:56:14;34.60;39.20
66608;DHT22;53462;39.616;8.824;2023-09-19T12:58:54;34.50;40.70
66608;DHT22;53462;39.616;8.824;2023-09-19T13:01:21;34.30;42.90
66608;DHT22;53462;39.616;8.824;2023-09-19T13:04:16;34.00;42.10
66608;DHT22;53462;39.616;8.824;2023-09-19T13:06:49;34.10;41.60
66608;DHT22;53462;39.616;8.824;2023-09-19T13:09:20;34.20;41.90
66608;DHT22;53462;39.616;8.824;2023-09-19T13:11:47;33.90;42.30
66608;DHT22;53462;39.616;8.824;2023-09-19T13:14:20;33.70;42.60
66608;DHT22;53462;39.616;8.824;2023-09-19T13:16:59;33.70;43.00
66608;DHT22;53462;39.616;8.824;2023-09-19T13:19:44;33.90;42.80
66608;DHT22;53462;39.616;8.824;2023-09-19T13:22:44;34.30;40.60
66608;DHT22;53462;39.616;8.824;2023-09-19T13:25:16;33.90;40.20
66608;DHT22;53462;39.616;8.824;2023-09-19T13:30:14;33.60;39.30
66608;DHT22;53462;39.616;8.824;2023-09-19T13:32:41;33.60;39.30
66608;DHT22;53462;39.616;8.824;2023-09-19T13:35:08;33.60;40.00
66608;DHT22;53462;39.616;8.824;2023-09-19T13:37:35;33.50;40.30
66608;DHT22;53462;39.616;8.824;2023-09-19T13:40:15;33.30;42.40
66608;DHT22;53462;39.616;8.824;2023-09-19T13:42:42;32.90;43.40
66608;DHT22;53462;39.616;8.824;2023-09-19T13:45:08;32.80;43.80
66608;DHT22;53462;39.616;8.824;2023-09-19T13:47:38;33.00;43.00
66608;DHT22;53462;39.616;8.824;2023-09-19T13:50:04;33.20;42.30
66608;DHT22;53462;39.616;8.824;2023-09-19T13:52:31;33.00;44.20
66608;DHT22;53462;39.616;8.824;2023-09-19T13:54:57;32.80;44.80
66608;DHT22;53462;39.616;8.824;2023-09-19T13:57:26;32.60;45.60
66608;DHT22;53462;39.616;8.824;2023-09-19T13:59:53;32.50;43.70
66608;DHT22;53462;39.616;8.824;2023-09-19T14:02:22;32.40;45.20
66608;DHT22;53462;39.616;8.824;2023-09-19T14:04:49;32.50;45.50
66608;DHT22;53462;39.616;8.824;2023-09-19T14:07:16;32.50;45.50
66608;DHT22;53462;39.616;8.824;2023-09-19T14:09:43;32.50;45.20
66608;DHT22;53462;39.616;8.824;2023-09-19T14:12:09;32.60;45.10
66608;DHT22;53462;39.616;8.824;2023-09-19T14:14:35;32.60;45.30
66608;DHT22;53462;39.616;8.824;2023-09-19T14:17:03;32.50;45.00
66608;DHT22;53462;39.616;8.824;2023-09-19T14:19:30;32.50;45.00
66608;DHT22;53462;39.616;8.824;2023-09-19T14:21:56;32.40;45.80
66608;DHT22;53462;39.616;8.824;2023-09-19T14:24:22;32.30;45.20
66608;DHT22;53462;39.616;8.824;2023-09-19T14:26:49;32.30;45.20
66608;DHT22;53462;39.616;8.824;2023-09-19T14:29:16;32.40;45.60
66608;DHT22;53462;39.616;8.824;2023-09-19T14:31:42;32.30;45.30
66608;DHT22;53462;39.616;8.824;2023-09-19T14:34:09;32.20;44.30
66608;DHT22;53462;39.616;8.824;2023-09-19T14:36:38;32.10;44.30
66608;DHT22;53462;39.616;8.824;2023-09-19T14:39:04;32.10;44.50
66608;DHT22;53462;39.616;8.824;2023-09-19T14:41:30;32.00;44.50
66608;DHT22;53462;39.616;8.824;2023-09-19T14:43:57;32.00;45.50
66608;DHT22;53462;39.616;8.824;2023-09-19T14:46:23;32.10;45.30
66608;DHT22;53462;39.616;8.824;2023-09-19T14:48:52;31.80;45.80
66608;DHT22;53462;39.616;8.824;2023-09-19T14:51:19;31.80;46.80
66608;DHT22;53462;39.616;8.824;2023-09-19T14:53:45;31.80;46.90
66608;DHT22;53462;39.616;8.824;2023-09-19T14:56:12;31.80;46.80
66608;DHT22;53462;39.616;8.824;2023-09-19T14:58:41;31.70;45.50
66608;DHT22;53462;39.616;8.824;2023-09-19T15:01:09;31.50;46.30
66608;DHT22;53462;39.616;8.824;2023-09-19T15:03:39;31.50;47.50
66608;DHT22;53462;39.616;8.824;2023-09-19T15:06:15;31.30;49.10
66608;DHT22;53462;39.616;8.824;2023-09-19T15:08:44;31.00;49.50
66608;DHT22;53462;39.616;8.824;2023-09-19T15:11:17;31.10;46.20
66608;DHT22;53462;39.616;8.824;2023-09-19T15:13:44;31.10;47.70
66608;DHT22;53462;39.616;8.824;2023-09-19T15:16:11;31.10;45.60
66608;DHT22;53462;39.616;8.824;2023-09-19T15:18:38;31.10;46.00
66608;DHT22;53462;39.616;8.824;2023-09-19T15:21:06;31.00;47.60
66608;DHT22;53462;39.616;8.824;2023-09-19T15:23:33;31.10;50.50
66608;DHT22;53462;39.616;8.824;2023-09-19T15:26:11;31.00;51.90
66608;DHT22;53462;39.616;8.824;2023-09-19T15:28:38;31.00;51.70
66608;DHT22;53462;39.616;8.824;2023-09-19T15:31:09;30.80;51.80
66608;DHT22;53462;39.616;8.824;2023-09-19T15:33:36;30.70;50.60
66608;DHT22;53462;39.616;8.824;2023-09-19T15:36:12;30.70;52.40
66608;DHT22;53462;39.616;8.824;2023-09-19T15:39:08;30.30;55.40
66608;DHT22;53462;39.616;8.824;2023-09-19T15:41:41;30.10;56.50
66608;DHT22;53462;39.616;8.824;2023-09-19T15:44:18;30.00;58.40
66608;DHT22;53462;39.616;8.824;2023-09-19T15:46:45;29.80;59.30
66608;DHT22;53462;39.616;8.824;2023-09-19T15:49:11;29.70;60.00
66608;DHT22;53462;39.616;8.824;2023-09-19T15:51:37;29.50;60.90
66608;DHT22;53462;39.616;8.824;2023-09-19T15:54:11;29.50;61.00
66608;DHT22;53462;39.616;8.824;2023-09-19T15:56:41;29.50;60.10
66608;DHT22;53462;39.616;8.824;2023-09-19T15:59:08;29.40;59.90
66608;DHT22;53462;39.616;8.824;2023-09-19T16:01:44;29.50;58.70
66608;DHT22;53462;39.616;8.824;2023-09-19T16:04:10;29.50;57.90
66608;DHT22;53462;39.616;8.824;2023-09-19T16:06:37;29.40;56.60
66608;DHT22;53462;39.616;8.824;2023-09-19T16:09:04;29.40;55.40
66608;DHT22;53462;39.616;8.824;2023-09-19T16:11:34;29.40;55.30
66608;DHT22;53462;39.616;8.824;2023-09-19T16:14:01;29.40;54.30
66608;DHT22;53462;39.616;8.824;2023-09-19T16:16:27;29.40;53.70
66608;DHT22;53462;39.616;8.824;2023-09-19T16:18:57;29.30;53.50
66608;DHT22;53462;39.616;8.824;2023-09-19T16:21:25;29.20;53.60